Ash Grove, Missouri
Current Conditions -  °F | °C
As of 3:52 AM on Wednesday 22 Oct 2014 (Local Time) from KSGF Reporting Station
Clear Clear  
Wind Chill: 52°   Ceiling: Unl
Heat Index: 52°   Visibility: 10mi
Dew Point: 44°   Wind: 12mph
Humidity: 74%   Direction: 140°SE
Pressure: 30.15"   Gusts: NA
Location:  37.32°N, 93.59°W
Report Text: KSGF 220852Z 14010KT 10SM CLR 11/07 A3015 RMK AO2 SLP204 T01110067 50008
Loading
Personal Weather Stations






























Interactive Weather Map
Tropical Storm Tracking
New forecast layout! Learn more

10-Day Weather Forecast

Advertisements
Track Severe Weather on mobile